createdAt,value
2018-10-07T00:01:44.325Z,70.61
2018-10-07T00:04:13.975Z,70.89
2018-10-07T00:06:43.604Z,70.55
2018-10-07T00:09:13.268Z,70.02
2018-10-07T00:11:43.353Z,70.76
2018-10-07T00:14:13.028Z,70.75
2018-10-07T00:16:42.660Z,71.34
2018-10-07T00:19:12.312Z,71.49
2018-10-07T00:21:41.936Z,71.49
2018-10-07T00:24:11.601Z,72.10
2018-10-07T00:26:41.616Z,70.73
2018-10-07T00:29:11.256Z,71.64
2018-10-07T00:31:46.036Z,71.62
2018-10-07T00:34:15.676Z,71.01
2018-10-07T00:36:45.352Z,71.14
2018-10-07T00:39:15.008Z,70.54
2018-10-07T00:41:44.640Z,71.91
2018-10-07T00:44:14.512Z,71.25
2018-10-07T00:46:44.171Z,71.30
2018-10-07T00:49:13.856Z,72.31
2018-10-07T00:51:43.578Z,71.57
2018-10-07T00:54:13.256Z,72.14
2018-10-07T00:56:42.932Z,72.29
2018-10-07T00:59:12.616Z,71.77
2018-10-07T01:01:42.296Z,71.96
2018-10-07T01:04:11.960Z,72.95
2018-10-07T01:06:41.611Z,72.39
2018-10-07T01:09:12.724Z,73.01
2018-10-07T01:11:42.362Z,73.05
2018-10-07T01:14:12.352Z,72.58
2018-10-07T01:16:42.008Z,72.92
2018-10-07T01:19:11.684Z,73.19
2018-10-07T01:21:41.320Z,72.83
2018-10-07T01:24:10.991Z,73.43
2018-10-07T01:26:40.642Z,73.56
2018-10-07T01:29:10.327Z,74.24
2018-10-07T01:31:39.969Z,73.23
2018-10-07T01:34:09.636Z,73.83
2018-10-07T01:36:39.272Z,75.38
2018-10-07T01:39:10.715Z,74.29
2018-10-07T01:41:40.373Z,73.93
2018-10-07T01:44:10.028Z,75.38
2018-10-07T01:46:39.682Z,75.99
2018-10-07T01:49:09.342Z,75.52
2018-10-07T01:51:38.968Z,76.41
2018-10-07T01:54:08.659Z,76.34
2018-10-07T01:56:38.288Z,75.31
2018-10-07T01:59:07.976Z,76.40
2018-10-07T02:01:37.635Z,75.34
2018-10-07T02:04:07.335Z,75.69
2018-10-07T02:06:36.959Z,75.79
2018-10-07T02:09:08.704Z,75.63
2018-10-07T02:11:38.348Z,76.33
2018-10-07T02:14:08.017Z,76.41
2018-10-07T02:16:37.640Z,77.54
2018-10-07T02:19:07.296Z,77.57
2018-10-07T02:21:36.915Z,77.63
2018-10-07T02:24:06.632Z,77.81
2018-10-07T02:26:36.268Z,77.61
2018-10-07T02:29:06.004Z,78.85
2018-10-07T02:31:35.645Z,78.68
2018-10-07T02:34:05.320Z,78.60
2018-10-07T02:36:34.957Z,79.68
2018-10-07T02:39:06.149Z,79.52
2018-10-07T02:41:35.792Z,78.97
2018-10-07T02:44:05.460Z,80.19
2018-10-07T02:46:35.095Z,79.65
2018-10-07T02:49:04.754Z,79.86
2018-10-07T02:51:34.716Z,80.07
2018-10-07T02:54:04.505Z,79.95
2018-10-07T02:56:34.210Z,79.45
2018-10-07T02:59:04.474Z,80.08
2018-10-07T03:01:34.136Z,80.21
2018-10-07T03:04:03.848Z,79.78
2018-10-07T03:06:33.532Z,79.26
2018-10-07T03:09:03.289Z,79.77
2018-10-07T03:11:32.940Z,79.89
2018-10-07T03:14:02.632Z,79.32
2018-10-07T03:16:32.261Z,79.34
2018-10-07T03:19:01.923Z,81.11
2018-10-07T03:21:32.120Z,80.46
2018-10-07T03:24:01.774Z,80.56
2018-10-07T03:26:31.496Z,80.89
2018-10-07T03:29:01.176Z,80.91
2018-10-07T03:31:30.840Z,80.51
2018-10-07T03:34:00.492Z,80.80
2018-10-07T03:36:30.136Z,80.93
2018-10-07T03:38:59.785Z,80.43
2018-10-07T03:41:29.455Z,80.15
2018-10-07T03:43:59.120Z,80.63
2018-10-07T03:46:28.767Z,79.92
2018-10-07T03:48:58.432Z,79.80
2018-10-07T03:51:28.080Z,80.23
2018-10-07T03:53:57.720Z,79.60
2018-10-07T03:56:27.352Z,79.67
2018-10-07T03:58:56.996Z,79.16
2018-10-07T04:01:26.712Z,80.09
2018-10-07T04:03:56.376Z,79.47
2018-10-07T04:06:26.028Z,80.00
2018-10-07T04:08:55.688Z,79.63
2018-10-07T04:11:25.318Z,80.45
2018-10-07T04:13:54.965Z,80.02
2018-10-07T04:16:24.608Z,80.64
2018-10-07T04:18:54.280Z,80.78
2018-10-07T04:21:24.181Z,80.93
2018-10-07T04:23:53.883Z,80.77
2018-10-07T04:26:23.525Z,81.26
2018-10-07T04:28:53.172Z,80.87
2018-10-07T04:31:22.966Z,80.54
2018-10-07T04:33:52.660Z,81.51
2018-10-07T04:36:22.298Z,80.72
2018-10-07T04:38:51.948Z,81.26
2018-10-07T04:41:21.584Z,81.46
2018-10-07T04:43:51.232Z,82.22
2018-10-07T04:46:20.872Z,81.92
2018-10-07T04:48:50.565Z,82.15
2018-10-07T04:51:20.210Z,81.63
2018-10-07T04:53:49.874Z,81.79
2018-10-07T04:56:19.511Z,80.98
2018-10-07T04:58:49.170Z,80.89
2018-10-07T05:01:18.892Z,80.95
2018-10-07T05:03:48.558Z,81.87
2018-10-07T05:06:18.612Z,81.59
2018-10-07T05:08:48.517Z,81.73
2018-10-07T05:11:18.365Z,80.98
2018-10-07T05:13:50.478Z,81.48
2018-10-07T05:16:29.501Z,80.75
2018-10-07T05:18:59.821Z,80.42
2018-10-07T05:21:29.572Z,80.60
2018-10-07T05:23:59.892Z,81.78
2018-10-07T05:26:29.989Z,81.11
2018-10-07T05:28:59.684Z,81.05
2018-10-07T05:31:29.332Z,80.28
2018-10-07T05:33:58.998Z,79.97
2018-10-07T05:36:28.656Z,80.64
2018-10-07T05:38:58.329Z,80.46
2018-10-07T05:41:28.008Z,80.42
2018-10-07T05:43:57.667Z,79.45
2018-10-07T05:46:27.314Z,80.29
2018-10-07T05:48:56.985Z,80.71
2018-10-07T05:51:26.615Z,80.18
2018-10-07T05:53:56.304Z,80.50
2018-10-07T05:56:25.957Z,79.79
2018-10-07T05:58:56.767Z,79.57
2018-10-07T06:01:30.451Z,80.36
2018-10-07T06:04:19.965Z,80.23
2018-10-07T06:06:49.799Z,80.19
2018-10-07T06:09:29.835Z,80.28
2018-10-07T06:11:59.524Z,79.89
2018-10-07T06:14:40.294Z,79.75
2018-10-07T06:17:09.980Z,79.29
2018-10-07T06:19:39.648Z,80.19
2018-10-07T06:22:09.371Z,80.14
2018-10-07T06:24:39.059Z,80.82
2018-10-07T06:27:08.744Z,80.00
2018-10-07T06:29:38.434Z,80.73
2018-10-07T06:32:08.195Z,80.21
2018-10-07T06:34:37.885Z,80.19
2018-10-07T06:37:07.600Z,80.25
2018-10-07T06:39:37.324Z,79.94
2018-10-07T06:42:07.462Z,79.80
2018-10-07T06:44:37.145Z,79.64
2018-10-07T06:47:06.939Z,79.73
2018-10-07T06:49:36.610Z,80.48
2018-10-07T06:52:06.424Z,79.78
2018-10-07T06:54:36.097Z,79.84
2018-10-07T06:57:05.832Z,80.33
2018-10-07T06:59:35.535Z,80.18
2018-10-07T07:02:05.604Z,79.21
2018-10-07T07:04:35.250Z,79.07
2018-10-07T07:07:04.907Z,79.41
2018-10-07T07:09:34.536Z,78.88
2018-10-07T07:12:04.197Z,79.59
2018-10-07T07:14:33.809Z,79.06
2018-10-07T07:17:03.470Z,78.72
2018-10-07T07:19:33.108Z,78.11
2018-10-07T07:22:02.783Z,77.83
2018-10-07T07:24:32.417Z,77.10
2018-10-07T07:27:02.164Z,77.80
2018-10-07T07:29:31.812Z,78.37
2018-10-07T07:32:01.525Z,77.49
2018-10-07T07:34:31.176Z,77.10
2018-10-07T07:37:00.869Z,76.99
2018-10-07T07:39:30.507Z,77.18
2018-10-07T07:42:00.144Z,77.82
2018-10-07T07:44:29.775Z,77.09
2018-10-07T07:46:59.438Z,77.05
2018-10-07T07:49:29.068Z,77.24
2018-10-07T07:51:58.740Z,77.31
2018-10-07T07:54:28.380Z,77.97
2018-10-07T07:56:58.068Z,76.58
2018-10-07T07:59:27.709Z,76.83
2018-10-07T08:01:57.379Z,76.56
2018-10-07T08:04:27.012Z,76.95
2018-10-07T08:06:56.679Z,77.31
2018-10-07T08:09:26.336Z,77.23
2018-10-07T08:11:56.003Z,77.44
2018-10-07T08:14:25.629Z,78.21
2018-10-07T08:16:55.294Z,77.41
2018-10-07T08:19:25.230Z,76.47
2018-10-07T08:21:54.888Z,76.29
2018-10-07T08:24:24.564Z,77.27
2018-10-07T08:26:54.244Z,77.27
2018-10-07T08:29:23.885Z,76.77
2018-10-07T08:31:53.545Z,75.48
2018-10-07T08:34:23.192Z,76.22
2018-10-07T08:36:53.138Z,75.80
2018-10-07T08:39:22.885Z,75.81
2018-10-07T08:41:52.643Z,75.92
2018-10-07T08:44:22.288Z,75.64
2018-10-07T08:46:51.951Z,75.64
2018-10-07T08:49:22.203Z,74.75
2018-10-07T08:51:51.864Z,74.60
2018-10-07T08:54:21.510Z,74.63
2018-10-07T08:56:51.217Z,73.60
2018-10-07T08:59:20.863Z,73.36
2018-10-07T09:01:50.532Z,73.44
2018-10-07T09:04:20.190Z,73.85
2018-10-07T09:06:49.880Z,72.66
2018-10-07T09:09:19.512Z,72.88
2018-10-07T09:11:49.163Z,72.83
2018-10-07T09:14:18.796Z,72.12
2018-10-07T09:16:48.491Z,71.94
2018-10-07T09:19:18.140Z,70.42
2018-10-07T09:21:47.796Z,70.54
2018-10-07T09:24:17.428Z,69.83
2018-10-07T09:26:47.100Z,70.24
2018-10-07T09:29:17.174Z,70.13
2018-10-07T09:31:46.887Z,69.63
2018-10-07T09:34:16.529Z,68.40
2018-10-07T09:36:46.266Z,69.08
2018-10-07T09:39:15.917Z,68.39
2018-10-07T09:41:45.531Z,68.93
2018-10-07T09:44:15.164Z,67.00
2018-10-07T09:46:44.868Z,64.91
2018-10-07T09:49:14.637Z,66.02
2018-10-07T09:51:44.305Z,64.79
2018-10-07T09:54:13.957Z,63.51
2018-10-07T09:56:43.624Z,64.13
2018-10-07T09:59:13.323Z,63.96
2018-10-07T10:01:43.004Z,64.14
2018-10-07T10:04:12.732Z,64.86
2018-10-07T10:06:42.772Z,64.73
2018-10-07T10:09:12.608Z,64.32
2018-10-07T10:11:42.307Z,64.93
2018-10-07T10:14:12.003Z,64.57
2018-10-07T10:16:52.735Z,64.90
2018-10-07T10:19:28.197Z,63.61
2018-10-07T10:22:15.432Z,63.77
2018-10-07T10:25:02.708Z,63.71
2018-10-07T10:27:43.324Z,61.67
2018-10-07T10:30:24.173Z,61.73
2018-10-07T10:33:17.844Z,62.84
2018-10-07T10:35:56.713Z,61.91
2018-10-07T10:39:09.239Z,60.61
2018-10-07T10:41:45.407Z,61.14
2018-10-07T10:44:25.472Z,61.11
2018-10-07T10:47:03.688Z,60.91
2018-10-07T10:49:41.972Z,59.64
2018-10-07T10:52:29.968Z,60.12
2018-10-07T10:57:12.240Z,59.07
2018-10-07T10:59:50.824Z,60.28
2018-10-07T11:02:32.889Z,59.57
2018-10-07T11:05:30.196Z,58.23
2018-10-07T11:08:54.975Z,57.14
2018-10-07T11:11:39.720Z,56.88
2018-10-07T11:14:39.772Z,58.02
2018-10-07T11:17:14.112Z,56.69
2018-10-07T11:19:53.217Z,58.14
2018-10-07T11:22:44.204Z,58.20
2018-10-07T11:25:26.281Z,56.89
2018-10-07T11:28:10.518Z,56.59
2018-10-07T11:31:25.921Z,56.62
2018-10-07T11:34:06.833Z,55.35
2018-10-07T11:36:49.347Z,56.12
2018-10-07T11:40:34.613Z,54.63
2018-10-07T11:44:11.278Z,53.10
2018-10-07T11:46:53.480Z,53.40
2018-10-07T11:49:29.952Z,53.86
2018-10-07T11:52:06.763Z,54.05
2018-10-07T11:55:00.229Z,53.99
2018-10-07T11:57:30.000Z,54.12
2018-10-07T12:00:00.264Z,53.49
2018-10-07T12:02:29.952Z,53.58
2018-10-07T12:04:59.639Z,52.44
2018-10-07T12:07:31.149Z,52.37
2018-10-07T12:10:00.793Z,53.37
2018-10-07T12:12:30.488Z,51.80
2018-10-07T12:15:00.150Z,51.43
2018-10-07T12:17:29.812Z,50.95
2018-10-07T12:19:59.440Z,50.46
2018-10-07T12:22:29.125Z,49.96
2018-10-07T12:24:58.752Z,49.75
2018-10-07T12:27:28.423Z,51.46
2018-10-07T12:29:58.081Z,49.95
2018-10-07T12:32:27.732Z,48.03
2018-10-07T12:34:57.389Z,48.17
2018-10-07T12:37:27.064Z,48.45
2018-10-07T12:39:56.697Z,49.03
2018-10-07T12:42:26.383Z,48.56
2018-10-07T12:44:55.992Z,48.84
2018-10-07T12:47:25.659Z,47.90
2018-10-07T12:49:55.302Z,47.77
2018-10-07T12:52:24.980Z,47.52
2018-10-07T12:54:54.623Z,48.18
2018-10-07T12:57:24.292Z,47.45
2018-10-07T12:59:53.956Z,47.31
2018-10-07T13:02:23.592Z,48.23
2018-10-07T13:04:53.300Z,47.46
2018-10-07T13:07:23.147Z,47.44
2018-10-07T13:09:52.811Z,45.66
2018-10-07T13:12:22.448Z,46.62
2018-10-07T13:14:52.109Z,46.62
2018-10-07T13:17:21.752Z,45.29
2018-10-07T13:19:51.420Z,44.50
2018-10-07T13:22:21.061Z,43.97
2018-10-07T13:24:50.739Z,44.74
2018-10-07T13:27:20.384Z,44.62
2018-10-07T13:29:50.050Z,45.03
2018-10-07T13:32:19.716Z,44.68
2018-10-07T13:34:49.404Z,44.98
2018-10-07T13:37:19.075Z,43.22
2018-10-07T13:39:48.798Z,43.41
2018-10-07T13:42:18.468Z,42.60
2018-10-07T13:44:48.168Z,43.11
2018-10-07T13:47:17.824Z,41.56
2018-10-07T13:49:47.505Z,43.45
2018-10-07T13:52:17.160Z,43.63
2018-10-07T13:54:46.835Z,42.83
2018-10-07T13:57:16.583Z,43.15
2018-10-07T13:59:46.249Z,43.33
2018-10-07T14:02:15.880Z,43.68
2018-10-07T14:04:45.608Z,44.13
2018-10-07T14:07:15.259Z,44.39
2018-10-07T14:09:44.949Z,43.20
2018-10-07T14:12:14.597Z,44.81
2018-10-07T14:14:44.272Z,44.05
2018-10-07T14:17:13.919Z,44.16
2018-10-07T14:19:43.676Z,44.98
2018-10-07T14:22:13.355Z,45.04
2018-10-07T14:24:43.062Z,44.23
2018-10-07T14:27:12.712Z,44.89
2018-10-07T14:29:42.417Z,45.05
2018-10-07T14:32:12.053Z,43.58
2018-10-07T14:34:41.692Z,42.72
2018-10-07T14:37:11.344Z,42.52
2018-10-07T14:39:40.976Z,42.27
2018-10-07T14:42:10.636Z,42.14
2018-10-07T14:44:40.312Z,41.79
2018-10-07T14:47:09.964Z,41.83
2018-10-07T14:49:39.605Z,41.93
2018-10-07T14:54:31.877Z,42.98
2018-10-07T14:57:01.570Z,43.18
2018-10-07T14:59:31.301Z,42.79
2018-10-07T15:02:00.952Z,44.23
2018-10-07T15:04:30.591Z,43.60
2018-10-07T15:07:00.305Z,44.46
2018-10-07T15:09:29.964Z,44.62
2018-10-07T15:11:59.601Z,43.49
2018-10-07T15:14:29.281Z,44.35
2018-10-07T15:16:58.903Z,45.78
2018-10-07T15:19:28.531Z,45.33
2018-10-07T15:21:58.213Z,45.57
2018-10-07T15:24:27.843Z,45.03
2018-10-07T15:26:57.477Z,45.89
2018-10-07T15:29:27.239Z,46.36
2018-10-07T15:31:56.850Z,46.02
2018-10-07T15:34:26.482Z,46.89
2018-10-07T15:36:56.177Z,46.63
2018-10-07T15:39:25.830Z,47.00
2018-10-07T15:41:55.475Z,47.32
2018-10-07T15:44:25.169Z,48.37
2018-10-07T15:46:54.804Z,48.62
2018-10-07T15:49:24.452Z,48.83
2018-10-07T15:51:54.140Z,48.66
2018-10-07T15:54:23.864Z,49.06
2018-10-07T15:56:53.507Z,49.23
2018-10-07T15:59:23.229Z,48.88
2018-10-07T16:01:52.980Z,48.60
2018-10-07T16:04:22.785Z,49.54
2018-10-07T16:06:52.508Z,49.65
2018-10-07T16:09:22.159Z,49.26
2018-10-07T16:11:51.804Z,48.89
2018-10-07T16:14:21.489Z,49.69
2018-10-07T16:16:51.126Z,49.96
2018-10-07T16:19:20.772Z,50.64
2018-10-07T16:21:50.494Z,50.93
2018-10-07T16:24:20.340Z,50.96
2018-10-07T16:26:50.079Z,51.47
2018-10-07T16:29:19.774Z,51.99
2018-10-07T16:31:49.408Z,52.86
2018-10-07T16:34:19.136Z,53.59
2018-10-07T16:36:48.756Z,53.97
2018-10-07T16:39:18.536Z,53.47
2018-10-07T16:41:48.148Z,53.81
2018-10-07T16:44:17.800Z,54.48
2018-10-07T16:46:47.441Z,55.34
2018-10-07T16:49:17.113Z,54.81
2018-10-07T16:51:46.755Z,54.92
2018-10-07T16:54:16.396Z,55.03
2018-10-07T16:56:46.085Z,54.90
2018-10-07T16:59:15.743Z,55.34
2018-10-07T17:01:45.390Z,54.66
2018-10-07T17:04:15.072Z,54.63
2018-10-07T17:06:44.720Z,55.02
2018-10-07T17:09:14.349Z,55.16
2018-10-07T17:11:44.030Z,55.38
2018-10-07T17:14:13.661Z,55.58
2018-10-07T17:16:43.308Z,55.13
2018-10-07T17:19:12.972Z,55.56
2018-10-07T17:21:42.704Z,55.60
2018-10-07T17:24:12.459Z,55.88
2018-10-07T17:26:42.084Z,55.43
2018-10-07T17:29:11.708Z,55.81
2018-10-07T17:31:41.384Z,56.51
2018-10-07T17:34:11.016Z,57.03
2018-10-07T17:36:40.660Z,56.52
2018-10-07T17:39:11.434Z,56.89
2018-10-07T17:41:41.496Z,57.24
2018-10-07T17:44:11.164Z,57.71
2018-10-07T17:46:40.809Z,57.78
2018-10-07T17:49:10.488Z,58.26
2018-10-07T17:51:40.385Z,58.45
2018-10-07T17:54:10.008Z,58.61
2018-10-07T17:56:39.989Z,58.67
2018-10-07T17:59:09.666Z,58.35
2018-10-07T18:01:39.322Z,58.68
2018-10-07T18:04:08.988Z,58.95
2018-10-07T18:06:38.660Z,59.35
2018-10-07T18:09:09.273Z,59.91
2018-10-07T18:11:38.854Z,59.38
2018-10-07T18:14:08.507Z,60.18
2018-10-07T18:16:38.139Z,59.42
2018-10-07T18:19:07.856Z,60.28
2018-10-07T18:21:37.497Z,60.13
2018-10-07T18:24:07.204Z,60.59
2018-10-07T18:26:36.885Z,61.22
2018-10-07T18:29:06.589Z,61.32
2018-10-07T18:31:36.216Z,61.36
2018-10-07T18:34:05.891Z,62.72
2018-10-07T18:36:35.551Z,63.18
2018-10-07T18:39:07.896Z,62.95
2018-10-07T18:41:38.504Z,62.50
2018-10-07T18:44:08.264Z,63.22
2018-10-07T18:46:37.916Z,63.35
2018-10-07T18:49:07.611Z,63.31
2018-10-07T18:51:37.242Z,63.83
2018-10-07T18:54:06.992Z,64.41
2018-10-07T18:56:36.617Z,64.09
2018-10-07T18:59:06.367Z,64.91
2018-10-07T19:01:36.008Z,64.61
2018-10-07T19:04:05.680Z,65.24
2018-10-07T19:06:35.528Z,64.73
2018-10-07T19:09:07.828Z,64.65
2018-10-07T19:11:37.491Z,65.20
2018-10-07T19:14:07.329Z,64.93
2018-10-07T19:16:36.996Z,65.00
2018-10-07T19:19:06.680Z,65.06
2018-10-07T19:21:36.326Z,65.53
2018-10-07T19:24:05.995Z,66.05
2018-10-07T19:26:35.633Z,65.93
2018-10-07T19:29:05.304Z,65.47
2018-10-07T19:31:34.929Z,66.41
2018-10-07T19:34:04.588Z,66.26
2018-10-07T19:36:34.217Z,67.81
2018-10-07T19:39:04.685Z,67.01
2018-10-07T19:41:34.330Z,67.21
2018-10-07T19:44:04.009Z,66.64
2018-10-07T19:46:33.633Z,67.25
2018-10-07T19:49:03.329Z,67.69
2018-10-07T19:51:32.958Z,67.85
2018-10-07T19:54:02.640Z,67.32
2018-10-07T19:56:32.257Z,68.30
2018-10-07T19:59:01.942Z,67.73
2018-10-07T20:01:31.575Z,68.20
2018-10-07T20:04:01.260Z,68.19
2018-10-07T20:06:30.940Z,69.04
2018-10-07T20:09:00.591Z,69.12
2018-10-07T20:11:30.235Z,69.72
2018-10-07T20:13:59.989Z,69.54
2018-10-07T20:16:29.615Z,69.38
2018-10-07T20:18:59.288Z,68.93
2018-10-07T20:21:28.991Z,68.83
2018-10-07T20:23:58.648Z,69.51
2018-10-07T20:26:28.560Z,68.67
2018-10-07T20:28:58.220Z,68.78
2018-10-07T20:31:28.027Z,69.29
2018-10-07T20:33:57.695Z,69.79
2018-10-07T20:36:27.347Z,70.37
2018-10-07T20:38:57.008Z,69.67
2018-10-07T20:41:26.633Z,70.66
2018-10-07T20:43:56.287Z,70.23
2018-10-07T20:46:25.928Z,69.95
2018-10-07T20:48:55.589Z,71.00
2018-10-07T20:51:25.220Z,70.55
2018-10-07T20:53:54.892Z,70.42
2018-10-07T20:56:24.532Z,70.72
2018-10-07T20:58:54.183Z,70.64
2018-10-07T21:01:23.816Z,70.73
2018-10-07T21:03:53.467Z,70.70
2018-10-07T21:06:23.156Z,71.03
2018-10-07T21:08:52.828Z,70.51
2018-10-07T21:11:22.460Z,71.02
2018-10-07T21:13:52.139Z,70.92
2018-10-07T21:16:21.780Z,72.79
2018-10-07T21:18:51.432Z,72.63
2018-10-07T21:21:21.055Z,72.23
2018-10-07T21:23:50.703Z,72.20
2018-10-07T21:26:20.336Z,71.67
2018-10-07T21:28:49.984Z,71.86
2018-10-07T21:31:19.608Z,72.13
2018-10-07T21:33:49.259Z,72.26
2018-10-07T21:36:18.888Z,72.35
2018-10-07T21:38:48.557Z,72.17
2018-10-07T21:41:18.196Z,70.99
2018-10-07T21:43:47.880Z,71.31
2018-10-07T21:46:17.516Z,72.15
2018-10-07T21:48:47.194Z,71.86
2018-10-07T21:51:16.848Z,72.42
2018-10-07T21:53:46.520Z,72.45
2018-10-07T21:56:16.152Z,72.38
2018-10-07T21:58:45.804Z,72.47
2018-10-07T22:01:15.445Z,72.27
2018-10-07T22:03:45.140Z,73.55
2018-10-07T22:06:14.780Z,74.03
2018-10-07T22:08:44.512Z,73.52
2018-10-07T22:11:14.210Z,73.95
2018-10-07T22:13:43.908Z,74.76
2018-10-07T22:16:13.556Z,73.35
2018-10-07T22:18:43.212Z,73.53
2018-10-07T22:21:12.892Z,73.17
2018-10-07T22:23:42.537Z,72.74
2018-10-07T22:26:12.216Z,73.82
2018-10-07T22:28:41.909Z,74.53
2018-10-07T22:31:11.560Z,73.87
2018-10-07T22:33:41.260Z,73.83
2018-10-07T22:36:10.897Z,74.60
2018-10-07T22:38:40.542Z,74.30
2018-10-07T22:41:10.236Z,75.27
2018-10-07T22:43:39.859Z,74.79
2018-10-07T22:46:09.490Z,74.87
2018-10-07T22:48:39.180Z,75.46
2018-10-07T22:51:08.822Z,75.62
2018-10-07T22:53:38.436Z,75.53
2018-10-07T22:56:08.140Z,76.01
2018-10-07T22:58:37.760Z,75.69
2018-10-07T23:01:07.819Z,76.27
2018-10-07T23:03:37.544Z,75.65
2018-10-07T23:06:07.468Z,75.65
2018-10-07T23:08:37.204Z,76.05
2018-10-07T23:11:07.080Z,75.44
2018-10-07T23:13:36.734Z,76.41
2018-10-07T23:16:06.448Z,76.27
2018-10-07T23:18:36.087Z,76.34
2018-10-07T23:21:05.736Z,76.40
2018-10-07T23:23:35.456Z,75.81
2018-10-07T23:26:05.081Z,75.89
2018-10-07T23:28:34.730Z,75.60
2018-10-07T23:31:04.661Z,75.87
2018-10-07T23:33:34.288Z,76.21
2018-10-07T23:36:03.912Z,75.34
2018-10-07T23:38:33.621Z,75.19
2018-10-07T23:41:03.352Z,75.69
2018-10-07T23:43:32.964Z,76.19
2018-10-07T23:46:02.632Z,75.52
2018-10-07T23:48:32.233Z,75.17
2018-10-07T23:51:01.859Z,75.77
2018-10-07T23:53:31.524Z,75.66
2018-10-07T23:56:01.154Z,75.56
2018-10-07T23:58:30.780Z,75.54
